Time;durP1;ratioP1;P1;durP2;ratioP2;P2;SDS_P1;SDS_P2;PMS_P1;PMS_P2;Temp;Humidity;BMP_temperature;BMP_pressure;BME280_temperature;BME280_humidity;BME280_pressure;Samples;Min_cycle;Max_cycle;Signal;HPM_P1;HPM_P2
2022/02/23 00:01:09;;;;;;;2.80;0.82;;;;;;;-145.06;0.00;60892.56;4837753;28;20049;-88
2022/02/23 00:03:48;;;;;;;3.67;1.13;;;;;;;-145.06;0.00;60892.56;4839967;28;20434;-88
2022/02/23 00:06:28;;;;;;;1.77;1.00;;;;;;;-145.06;0.00;60892.56;4837724;28;20029;-88
2022/02/23 00:09:07;;;;;;;2.38;1.05;;;;;;;-145.06;0.00;60892.56;4841155;28;20499;-88
2022/02/23 00:11:45;;;;;;;3.25;0.90;;;;;;;-145.06;0.00;60892.56;4839737;28;20046;-88
2022/02/23 00:14:24;;;;;;;4.33;1.10;;;;;;;-145.06;0.00;60892.56;4840255;28;20045;-88
2022/02/23 00:17:04;;;;;;;2.53;1.00;;;;;;;-145.06;0.00;60892.56;4844275;28;20281;-88
2022/02/23 00:19:43;;;;;;;2.38;0.93;;;;;;;-145.06;0.00;60892.56;4844667;28;20037;-87
2022/02/23 00:22:23;;;;;;;1.33;0.83;;;;;;;-145.06;0.00;60892.56;4834011;28;20424;-88
2022/02/23 00:25:03;;;;;;;4.15;1.10;;;;;;;-145.06;0.00;60892.56;4835298;28;20025;-88
2022/02/23 00:27:41;;;;;;;3.33;1.05;;;;;;;-145.06;0.00;60892.56;4833922;28;20026;-89
2022/02/23 00:30:20;;;;;;;2.37;0.93;;;;;;;-145.06;0.00;60892.56;4841275;28;20041;-88
2022/02/23 00:32:59;;;;;;;3.77;1.27;;;;;;;-145.06;0.00;60892.56;4839558;28;20268;-89
2022/02/23 00:35:38;;;;;;;2.53;1.10;;;;;;;-145.06;0.00;60892.56;4842790;28;20257;-89
2022/02/23 00:38:17;;;;;;;5.13;1.15;;;;;;;-145.06;0.00;60892.56;4837667;28;20488;-90
2022/02/23 00:40:56;;;;;;;4.40;1.10;;;;;;;-145.06;0.00;60892.56;4850769;28;20381;-91
2022/02/23 00:43:36;;;;;;;3.37;1.03;;;;;;;-145.06;0.00;60892.56;4836399;28;20030;-90
2022/02/23 00:46:15;;;;;;;;;;;;;;;-145.06;0.00;60892.56;4839707;28;20296;-90
2022/02/23 00:48:55;;;;;;;2.92;0.73;;;;;;;-145.06;0.00;60892.56;4845696;28;19913;-89
2022/02/23 00:51:34;;;;;;;4.25;1.15;;;;;;;-145.06;0.00;60892.56;4834315;28;20487;-89
2022/02/23 00:54:13;;;;;;;1.93;0.87;;;;;;;9.38;0.00;60892.56;4830530;28;20373;-90
2022/02/23 00:56:52;;;;;;;2.70;0.77;;;;;;;-145.06;0.00;60892.56;4838098;28;20472;-89
2022/02/23 00:59:31;;;;;;;1.58;0.57;;;;;;;-145.06;0.00;60892.56;4837125;28;20045;-89
2022/02/23 01:02:10;;;;;;;2.08;0.68;;;;;;;9.38;0.00;60892.56;4841720;28;20041;-89
2022/02/23 01:04:49;;;;;;;2.65;0.80;;;;;;;-145.06;0.00;60892.56;4846748;28;20061;-90
2022/02/23 01:07:28;;;;;;;4.05;0.88;;;;;;;8.07;0.00;60892.56;4833554;28;20065;-89
2022/02/23 01:10:09;;;;;;;2.78;1.02;;;;;;;8.04;0.00;60892.56;4833697;28;20053;-90
2022/02/23 01:12:48;;;;;;;2.17;1.00;;;;;;;-145.06;0.00;60892.56;4843392;28;20030;-88
2022/02/23 01:15:28;;;;;;;2.87;0.90;;;;;;;-145.06;0.00;60892.56;4837864;28;20029;-87
2022/02/23 01:18:07;;;;;;;2.03;0.68;;;;;;;187.52;0.00;60892.56;4840880;28;20420;-90
2022/02/23 01:20:46;;;;;;;4.43;1.13;;;;;;;7.99;0.00;60892.56;4837020;28;20025;-87
2022/02/23 01:23:25;;;;;;;3.42;0.80;;;;;;;-145.06;0.00;60892.56;4840516;28;20380;-87
2022/02/23 01:26:05;;;;;;;6.23;1.00;;;;;;;187.52;0.00;60892.56;4848744;28;20042;-88
2022/02/23 01:28:44;;;;;;;5.00;1.42;;;;;;;-145.06;0.00;60892.56;4839458;28;20041;-87
2022/02/23 01:31:23;;;;;;;4.60;1.40;;;;;;;-145.06;0.00;60892.56;4840456;28;20034;-89
2022/02/23 01:34:03;;;;;;;4.20;1.30;;;;;;;7.83;0.00;60892.56;4846726;28;20061;-86
2022/02/23 01:36:42;;;;;;;3.28;1.20;;;;;;;187.52;0.00;60892.56;4840631;28;20479;-88
2022/02/23 01:39:21;;;;;;;4.38;1.30;;;;;;;-145.06;0.00;60892.56;4837704;28;20026;-86
2022/02/23 01:42:00;;;;;;;2.80;0.80;;;;;;;10.68;0.00;60892.56;4848308;28;20045;-88
2022/02/23 01:44:39;;;;;;;4.65;1.30;;;;;;;8.08;0.00;60892.56;4837364;28;20273;-87
2022/02/23 01:47:18;;;;;;;3.30;1.50;;;;;;;-145.06;0.00;60892.56;4841227;28;20030;-87
2022/02/23 01:49:57;;;;;;;5.15;1.30;;;;;;;10.68;0.00;60892.56;4834737;28;20033;-87
2022/02/23 01:52:36;;;;;;;6.47;1.83;;;;;;;-145.06;0.00;60892.56;4838991;28;20038;-87
2022/02/23 01:55:16;;;;;;;4.28;1.50;;;;;;;-145.06;0.00;60892.56;4844845;28;20041;-87
2022/02/23 01:57:55;;;;;;;3.95;1.20;;;;;;;-145.06;0.00;60892.56;4826442;28;20038;-87
2022/02/23 02:00:34;;;;;;;4.75;1.13;;;;;;;-145.06;0.00;60892.56;4835577;28;20042;-87
2022/02/23 02:03:14;;;;;;;1.93;1.00;;;;;;;-145.06;0.00;60892.56;4832936;28;20042;-87
2022/02/23 02:05:53;;;;;;;4.53;1.27;;;;;;;21.08;0.00;60892.56;4833005;28;20021;-88
2022/02/23 02:08:32;;;;;;;3.83;1.20;;;;;;;-145.06;0.00;60892.56;4842974;28;20056;-86
2022/02/23 02:11:11;;;;;;;5.73;1.30;;;;;;;-145.06;0.00;60892.56;4837823;28;20272;-87
2022/02/23 02:13:50;;;;;;;6.23;1.37;;;;;;;-145.06;0.00;60892.56;4843837;28;20034;-87
2022/02/23 02:16:29;;;;;;;3.57;1.20;;;;;;;-145.06;0.00;60892.56;4843396;28;20260;-88
2022/02/23 02:19:08;;;;;;;5.47;1.23;;;;;;;-145.06;0.00;60892.56;4842015;28;20038;-87
2022/02/23 02:21:57;;;;;;;2.67;1.20;;;;;;;-145.06;0.00;60892.56;4835774;28;20264;-87
2022/02/23 02:24:40;;;;;;;3.42;0.82;;;;;;;-145.06;0.00;60892.56;4838707;28;20037;-87
2022/02/23 02:27:19;;;;;;;4.60;1.08;;;;;;;-145.06;0.00;60892.56;4836773;28;20045;-87
2022/02/23 02:29:59;;;;;;;3.38;1.25;;;;;;;-145.06;0.00;60892.56;4843105;28;20034;-87
2022/02/23 02:32:38;;;;;;;4.05;1.40;;;;;;;-145.06;0.00;60892.56;4837102;28;20021;-87
2022/02/23 02:35:17;;;;;;;5.50;1.42;;;;;;;-145.06;0.00;60892.56;4836766;28;20042;-88
2022/02/23 02:37:56;;;;;;;2.60;0.95;;;;;;;-145.06;0.00;60892.56;4838878;28;20054;-87
2022/02/23 02:40:35;;;;;;;3.20;0.98;;;;;;;-145.06;0.00;60892.56;4829362;28;20030;-87
2022/02/23 02:43:16;;;;;;;4.90;1.40;;;;;;;-145.06;0.00;60892.56;4836082;28;20034;-87
2022/02/23 02:45:55;;;;;;;3.63;1.17;;;;;;;-145.06;0.00;60892.56;4837658;28;20767;-87
2022/02/23 02:48:33;;;;;;;2.50;1.10;;;;;;;-145.06;0.00;60892.56;4837134;28;20030;-87
2022/02/23 02:51:12;;;;;;;3.70;1.30;;;;;;;-145.06;0.00;60892.56;4834445;28;20029;-86
2022/02/23 02:53:52;;;;;;;5.50;1.30;;;;;;;-145.06;0.00;60892.56;4827883;28;20112;-87
2022/02/23 02:56:32;;;;;;;4.65;1.10;;;;;;;-145.06;0.00;60892.56;4839210;28;20749;-87
2022/02/23 02:59:11;;;;;;;4.53;1.08;;;;;;;-145.06;0.00;60892.56;4851439;28;20046;-88
2022/02/23 03:01:50;;;;;;;3.38;1.23;;;;;;;-145.06;0.00;60892.56;4838959;28;20037;-86
2022/02/23 03:04:29;;;;;;;2.03;1.08;;;;;;;-145.06;0.00;60892.56;4836516;28;20033;-87
2022/02/23 03:07:07;;;;;;;3.33;1.15;;;;;;;-145.06;0.00;60892.56;4846634;28;20025;-88
2022/02/23 03:09:46;;;;;;;2.90;1.25;;;;;;;-145.06;0.00;60892.56;4836669;28;20423;-87
2022/02/23 03:12:26;;;;;;;3.92;1.27;;;;;;;-145.06;0.00;60892.56;4827088;28;20488;-88
2022/02/23 03:15:05;;;;;;;1.55;0.80;;;;;;;-145.06;0.00;60892.56;4841306;28;20037;-87
2022/02/23 03:17:44;;;;;;;3.08;1.00;;;;;;;-145.06;0.00;60892.56;4844396;28;20065;-87
2022/02/23 03:20:23;;;;;;;3.77;1.37;;;;;;;-145.06;0.00;60892.56;4839363;28;20026;-89
2022/02/23 03:23:02;;;;;;;1.20;0.75;;;;;;;-145.06;0.00;60892.56;4840842;28;20269;-89
2022/02/23 03:25:41;;;;;;;2.27;0.90;;;;;;;-145.06;0.00;60892.56;4835274;28;20037;-89
2022/02/23 03:28:20;;;;;;;2.72;0.82;;;;;;;-145.06;0.00;60892.56;4832672;28;20033;-89
2022/02/23 03:30:58;;;;;;;2.65;1.23;;;;;;;-145.06;0.00;60892.56;4843904;28;20467;-86
2022/02/23 03:33:45;;;;;;;3.15;1.23;;;;;;;-145.06;0.00;60892.56;4842396;28;20033;-86
2022/02/23 03:36:24;;;;;;;1.23;0.82;;;;;;;10.68;0.00;60892.56;4845355;28;20048;-87
2022/02/23 03:39:04;;;;;;;2.15;0.98;;;;;;;-145.06;0.00;60892.56;4844643;28;20026;-88
2022/02/23 03:41:43;;;;;;;3.22;1.30;;;;;;;-145.06;0.00;60892.56;4839947;28;20038;-88
2022/02/23 03:44:23;;;;;;;4.20;1.20;;;;;;;-145.06;0.00;60892.56;4843221;28;20029;-89
2022/02/23 03:47:02;;;;;;;4.10;1.20;;;;;;;6.79;0.00;60892.56;4856167;28;20065;-88
2022/02/23 03:49:41;;;;;;;3.08;1.40;;;;;;;6.73;0.00;60892.56;4841498;28;20472;-89
2022/02/23 03:52:21;;;;;;;4.20;1.60;;;;;;;-145.06;0.00;60892.56;4848450;28;20053;-89
2022/02/23 03:55:00;;;;;;;6.55;1.90;;;;;;;6.68;0.00;60892.56;4840727;28;20037;-88
2022/02/23 03:57:39;;;;;;;2.50;1.25;;;;;;;6.70;0.00;60892.56;4842337;28;20029;-89
2022/02/23 04:00:19;;;;;;;3.28;1.20;;;;;;;6.59;0.00;60892.56;4833388;28;20495;-89
2022/02/23 04:02:57;;;;;;;6.57;1.45;;;;;;;187.52;0.00;60892.56;4839618;28;20369;-88
2022/02/23 04:05:36;;;;;;;2.93;1.60;;;;;;;21.08;0.00;60892.56;4849377;28;20472;-89
2022/02/23 04:08:15;;;;;;;1.80;0.97;;;;;;;-145.06;0.00;60892.56;4845944;28;20283;-88
2022/02/23 04:10:54;;;;;;;2.47;1.17;;;;;;;-145.06;0.00;60892.56;4840926;28;20042;-88
2022/02/23 04:13:33;;;;;;;1.88;1.10;;;;;;;-145.06;0.00;60892.56;4835007;28;20272;-89
2022/02/23 04:16:12;;;;;;;2.67;1.37;;;;;;;-145.06;0.00;60892.56;4839090;28;20038;-90
2022/02/23 04:18:52;;;;;;;2.25;1.10;;;;;;;-145.06;0.00;60892.56;4840063;28;20073;-90
2022/02/23 04:21:31;;;;;;;;;;;;;;;10.68;0.00;60892.56;4843268;28;20491;-89
2022/02/23 04:24:10;;;;;;;2.93;1.00;;;;;;;6.47;0.00;60892.56;4845637;28;19916;-89
2022/02/23 04:26:49;;;;;;;1.87;0.83;;;;;;;-145.06;0.00;60892.56;4842739;28;20035;-89
2022/02/23 04:29:29;;;;;;;1.13;0.63;;;;;;;-145.06;0.00;60892.56;4844107;28;20264;-89
2022/02/23 04:32:08;;;;;;;;;;;;;;;-145.06;0.00;60892.56;4839355;28;20802;-90
2022/02/23 04:34:48;;;;;;;3.03;0.95;;;;;;;-145.06;0.00;60892.56;4837361;28;19917;-89
2022/02/23 04:37:29;;;;;;;;;;;;;;;-145.06;0.00;60892.56;4869206;28;20373;-88
2022/02/23 04:40:09;;;;;;;4.07;1.20;;;;;;;-145.06;0.00;60892.56;4843471;28;19952;-88
2022/02/23 04:42:48;;;;;;;;;;;;;;;-145.06;0.00;60892.56;4841687;28;20104;-89
2022/02/23 04:45:27;;;;;;;3.20;1.25;;;;;;;-145.06;0.00;60892.56;4846017;28;19921;-90
2022/02/23 04:48:06;;;;;;;4.18;1.27;;;;;;;-145.06;0.00;60892.56;4840754;28;20030;-89
2022/02/23 04:50:45;;;;;;;3.15;1.08;;;;;;;-145.06;0.00;60892.56;4841014;28;20030;-90
2022/02/23 04:53:24;;;;;;;4.72;1.42;;;;;;;-145.06;0.00;60892.56;4840513;28;20046;-89
2022/02/23 04:56:05;;;;;;;4.07;1.13;;;;;;;-145.06;0.00;60892.56;4858631;28;20026;-89
2022/02/23 04:58:44;;;;;;;3.03;1.20;;;;;;;-145.06;0.00;60892.56;4862820;28;20273;-89
2022/02/23 05:01:24;;;;;;;1.92;1.10;;;;;;;-145.06;0.00;60892.56;4842476;28;20052;-89
2022/02/23 05:04:03;;;;;;;5.00;1.55;;;;;;;-145.06;0.00;60892.56;4846893;28;20069;-88
2022/02/23 05:06:42;;;;;;;4.23;1.30;;;;;;;-145.06;0.00;60892.56;4835592;28;20026;-90
2022/02/23 05:09:21;;;;;;;4.63;1.20;;;;;;;-145.06;0.00;60892.56;4839772;28;20260;-88
2022/02/23 05:12:00;;;;;;;2.47;1.15;;;;;;;-145.06;0.00;60892.56;4825892;28;20053;-88
2022/02/23 05:14:39;;;;;;;2.90;1.10;;;;;;;-145.06;0.00;60892.56;4847139;28;20037;-88
2022/02/23 05:17:18;;;;;;;1.25;0.93;;;;;;;-145.06;0.00;60892.56;4826742;28;20022;-87
2022/02/23 05:19:57;;;;;;;3.57;1.30;;;;;;;-145.06;0.00;60892.56;4832641;28;20030;-87
2022/02/23 05:22:36;;;;;;;2.53;1.05;;;;;;;-145.06;0.00;60892.56;4838691;28;20264;-88
2022/02/23 05:25:16;;;;;;;2.80;1.20;;;;;;;-145.06;0.00;60892.56;4846521;28;20559;-87
2022/02/23 05:27:55;;;;;;;4.00;1.40;;;;;;;-145.06;0.00;60892.56;4834242;28;20116;-88
2022/02/23 05:30:34;;;;;;;3.10;1.30;;;;;;;-145.06;0.00;60892.56;4834239;28;20112;-88
2022/02/23 05:33:13;;;;;;;1.40;0.93;;;;;;;-145.06;0.00;60892.56;4841869;28;20264;-87
2022/02/23 05:35:52;;;;;;;2.08;1.27;;;;;;;-145.06;0.00;60892.56;4843789;28;20100;-87
2022/02/23 05:38:31;;;;;;;4.03;1.30;;;;;;;-145.06;0.00;60892.56;4842108;28;20364;-88
2022/02/23 05:41:10;;;;;;;4.80;1.47;;;;;;;-145.06;0.00;60892.56;4842640;28;20476;-87
2022/02/23 05:43:49;;;;;;;2.23;1.20;;;;;;;-145.06;0.00;60892.56;4832370;28;20038;-88
2022/02/23 05:46:29;;;;;;;2.13;0.80;;;;;;;-145.06;0.00;60892.56;4841025;28;20527;-88
2022/02/23 05:49:08;;;;;;;1.50;0.80;;;;;;;-145.06;0.00;60892.56;4838783;28;20030;-87
2022/02/23 05:51:47;;;;;;;2.20;0.70;;;;;;;-145.06;0.00;60892.56;4837372;28;20060;-88
2022/02/23 05:54:26;;;;;;;1.42;1.05;;;;;;;-145.06;0.00;60892.56;4840289;28;20064;-88
2022/02/23 05:57:05;;;;;;;1.17;0.70;;;;;;;-145.06;0.00;60892.56;4835302;28;20026;-88
2022/02/23 05:59:44;;;;;;;2.83;1.08;;;;;;;-145.06;0.00;60892.56;4832914;28;20034;-88
2022/02/23 06:02:23;;;;;;;2.78;1.10;;;;;;;-145.06;0.00;60892.56;4835161;28;20033;-89
2022/02/23 06:05:02;;;;;;;0.93;0.70;;;;;;;187.52;0.00;60892.56;4831149;28;20034;-88
2022/02/23 06:07:41;;;;;;;1.42;0.70;;;;;;;-145.06;0.00;60892.56;4834812;28;20061;-87
2022/02/23 06:10:20;;;;;;;1.00;0.60;;;;;;;-145.06;0.00;60892.56;4834695;28;20385;-86
2022/02/23 06:12:59;;;;;;;2.78;0.82;;;;;;;-145.06;0.00;60892.56;4831100;28;20058;-87
2022/02/23 06:15:38;;;;;;;1.37;0.60;;;;;;;-145.06;0.00;60892.56;4832630;28;20116;-87
2022/02/23 06:18:17;;;;;;;1.00;0.70;;;;;;;-145.06;0.00;60892.56;4835166;28;20356;-86
2022/02/23 06:20:56;;;;;;;1.90;0.80;;;;;;;-145.06;0.00;60892.56;4835541;28;20025;-87
2022/02/23 06:23:34;;;;;;;1.05;0.77;;;;;;;-145.06;0.00;60892.56;4836340;28;20033;-86
2022/02/23 06:26:14;;;;;;;2.83;0.98;;;;;;;-145.06;0.00;60892.56;4828886;28;20038;-87
2022/02/23 06:28:53;;;;;;;1.83;0.75;;;;;;;-145.06;0.00;60892.56;4840158;28;20376;-87
2022/02/23 06:31:32;;;;;;;1.27;0.73;;;;;;;5.41;0.00;60892.56;4838097;28;20041;-87
2022/02/23 06:34:11;;;;;;;1.07;0.70;;;;;;;5.36;0.00;60892.56;4837336;28;20041;-88
2022/02/23 06:36:50;;;;;;;1.70;0.75;;;;;;;5.35;0.00;60892.56;4835538;28;20276;-87
2022/02/23 06:39:31;;;;;;;1.55;0.80;;;;;;;-145.06;0.00;60892.56;4839752;28;20392;-87
2022/02/23 06:42:11;;;;;;;1.20;0.70;;;;;;;5.31;0.00;60892.56;4834116;28;20042;-86
2022/02/23 06:44:50;;;;;;;;;;;;;;;187.52;0.00;60892.56;4845414;28;20038;-87
2022/02/23 06:47:29;;;;;;;1.48;0.80;;;;;;;-145.06;0.00;60892.56;4823593;28;20364;-86
2022/02/23 06:50:08;;;;;;;1.50;1.00;;;;;;;-145.06;0.00;60892.56;4850839;28;20369;-88
2022/02/23 06:52:48;;;;;;;1.10;0.65;;;;;;;5.28;0.00;60892.56;4837375;28;20037;-87
2022/02/23 06:55:27;;;;;;;2.65;0.80;;;;;;;-145.06;0.00;60892.56;4828034;28;20373;-86
2022/02/23 06:58:07;;;;;;;1.95;0.80;;;;;;;-145.06;0.00;60892.56;4842568;28;20475;-86
2022/02/23 07:00:46;;;;;;;2.75;0.80;;;;;;;-145.06;0.00;60892.56;4826444;28;20376;-86
2022/02/23 07:03:25;;;;;;;1.73;1.00;;;;;;;-145.06;0.00;60892.56;4823898;28;20034;-88
2022/02/23 07:06:04;;;;;;;1.75;0.80;;;;;;;-145.06;0.00;60892.56;4829948;28;21037;-86
2022/02/23 07:08:48;;;;;;;2.13;0.80;;;;;;;-145.06;0.00;60892.56;4829689;28;20033;-88
2022/02/23 07:11:29;;;;;;;2.40;1.10;;;;;;;-145.06;0.00;60892.56;4826576;28;20030;-91
2022/02/23 07:14:09;;;;;;;2.85;0.88;;;;;;;-145.06;0.00;60892.56;4826814;28;20519;-87
2022/02/23 07:16:48;;;;;;;1.27;0.80;;;;;;;5.49;0.00;60892.56;4831973;28;20439;-88
2022/02/23 07:19:27;;;;;;;1.92;0.80;;;;;;;-145.06;0.00;60892.56;4828402;28;20618;-88
2022/02/23 07:22:06;;;;;;;1.38;0.75;;;;;;;187.52;0.00;60892.56;4832350;28;20037;-86
2022/02/23 07:24:45;;;;;;;2.15;0.82;;;;;;;-145.06;0.00;60892.56;4830746;28;20054;-87
2022/02/23 07:27:26;;;;;;;1.80;0.77;;;;;;;-145.06;0.00;60892.56;4826333;28;20540;-87
2022/02/23 07:30:09;;;;;;;1.88;0.80;;;;;;;-145.06;0.00;60892.56;4827118;28;20091;-88
2022/02/23 07:32:49;;;;;;;2.58;0.82;;;;;;;-145.06;0.00;60892.56;4830175;28;20038;-88
2022/02/23 07:35:28;;;;;;;;;;;;;;;-145.06;0.00;60892.56;4839556;28;20034;-88
2022/02/23 07:38:08;;;;;;;2.03;0.80;;;;;;;-145.06;0.00;60892.56;4837417;28;19913;-87
2022/02/23 07:40:47;;;;;;;;;;;;;;;-145.06;0.00;60892.56;4833982;28;20026;-88
2022/02/23 07:43:26;;;;;;;4.43;1.17;;;;;;;-145.06;0.00;60892.56;4844116;28;19913;-87
2022/02/23 07:46:11;;;;;;;3.55;1.25;;;;;;;-145.06;0.00;60892.56;4838768;28;20436;-87
2022/02/23 07:48:55;;;;;;;3.40;0.95;;;;;;;-145.06;0.00;60892.56;4837925;28;20495;-87
2022/02/23 07:51:34;;;;;;;2.45;0.85;;;;;;;-145.06;0.00;60892.56;4828233;28;20042;-88
2022/02/23 07:54:13;;;;;;;1.70;0.70;;;;;;;-145.06;0.00;60892.56;4848275;28;20042;-88
2022/02/23 07:56:52;;;;;;;2.55;1.00;;;;;;;-145.06;0.00;60892.56;4832092;28;20268;-88
2022/02/23 07:59:32;;;;;;;1.07;0.50;;;;;;;-145.06;0.00;60892.56;4834444;28;20097;-86
2022/02/23 08:02:12;;;;;;;1.63;0.65;;;;;;;-145.06;0.00;60892.56;4836711;28;20268;-87
2022/02/23 08:04:52;;;;;;;1.33;0.82;;;;;;;-145.06;0.00;60892.56;4826196;28;20329;-88
2022/02/23 08:07:31;;;;;;;3.17;0.93;;;;;;;-145.06;0.00;60892.56;4864377;28;20033;-88
2022/02/23 08:10:09;;;;;;;1.75;0.88;;;;;;;-145.06;0.00;60892.56;4835602;28;20041;-87
2022/02/23 08:12:50;;;;;;;3.20;1.00;;;;;;;-145.06;0.00;60892.56;4825898;28;20038;-87
2022/02/23 08:21:25;;;;;;;1.17;0.60;;;;;;;10.68;0.00;60892.56;4838250;28;20065;-87
2022/02/23 08:24:05;;;;;;;1.25;0.73;;;;;;;-145.06;0.00;60892.56;4836273;28;20038;-88
2022/02/23 08:26:44;;;;;;;1.83;0.70;;;;;;;-145.06;0.00;60892.56;4828067;28;20064;-87
2022/02/23 08:29:24;;;;;;;1.17;0.80;;;;;;;-145.06;0.00;60892.56;4831550;28;20037;-87
2022/02/23 08:32:04;;;;;;;;;;;;;;;10.68;0.00;60892.56;4843088;28;20038;-87
2022/02/23 08:34:44;;;;;;;;;;;;;;;10.68;0.00;60892.56;4837178;28;19913;-87
2022/02/23 08:37:24;;;;;;;1.83;0.70;;;;;;;6.68;0.00;60892.56;4840423;28;20000;-87
2022/02/23 08:40:03;;;;;;;;;;;;;;;8.08;0.00;60892.56;4839503;28;20030;-87
2022/02/23 08:42:42;;;;;;;2.75;0.70;;;;;;;-145.06;0.00;60892.56;4836687;28;19913;-86
2022/02/23 08:45:21;;;;;;;0.77;0.40;;;;;;;-145.06;0.00;60892.56;4839574;28;20034;-86
2022/02/23 08:48:01;;;;;;;3.63;1.10;;;;;;;-145.06;0.00;60892.56;4846818;28;20483;-87
2022/02/23 08:50:40;;;;;;;2.17;0.90;;;;;;;-145.06;0.00;60892.56;4838682;28;20677;-87
2022/02/23 08:53:19;;;;;;;2.33;0.80;;;;;;;-145.06;0.00;60892.56;4836373;28;20034;-87
2022/02/23 08:55:58;;;;;;;2.30;0.60;;;;;;;-145.06;0.00;60892.56;4842951;28;20425;-87
2022/02/23 08:58:38;;;;;;;2.55;0.85;;;;;;;-145.06;0.00;60892.56;4833551;28;20480;-88
2022/02/23 09:01:17;;;;;;;2.03;0.77;;;;;;;-145.06;0.00;60892.56;4840266;28;20120;-88
2022/02/23 09:03:57;;;;;;;4.05;1.00;;;;;;;7.76;0.00;60892.56;4828265;28;20030;-87
2022/02/23 09:06:39;;;;;;;2.10;0.80;;;;;;;-145.06;0.00;60892.56;4827523;28;20037;-89
2022/02/23 09:09:19;;;;;;;2.10;0.77;;;;;;;-145.06;0.00;60892.56;4834791;28;20030;-88
2022/02/23 09:11:58;;;;;;;2.13;0.80;;;;;;;-145.06;0.00;60892.56;4840690;28;20029;-87
2022/02/23 09:14:37;;;;;;;1.27;0.60;;;;;;;-145.06;0.00;60892.56;4838194;28;20037;-87
2022/02/23 09:17:16;;;;;;;1.83;0.90;;;;;;;-145.06;0.00;60892.56;4827784;28;20621;-88
2022/02/23 09:19:57;;;;;;;2.33;0.70;;;;;;;-145.06;0.00;60892.56;4832044;28;20029;-88
2022/02/23 09:22:37;;;;;;;2.17;0.70;;;;;;;-145.06;0.00;60892.56;4833790;28;20045;-88
2022/02/23 09:25:15;;;;;;;3.80;1.07;;;;;;;-145.06;0.00;60892.56;4836126;28;20046;-88
2022/02/23 09:27:54;;;;;;;2.15;0.75;;;;;;;-145.06;0.00;60892.56;4845730;28;20887;-88
2022/02/23 09:30:33;;;;;;;3.90;1.10;;;;;;;-145.06;0.00;60892.56;4834795;28;20034;-88
2022/02/23 09:33:14;;;;;;;2.72;1.13;;;;;;;-145.06;0.00;60892.56;4829707;28;20073;-88
2022/02/23 09:35:52;;;;;;;2.53;0.75;;;;;;;-145.06;0.00;60892.56;4828053;28;20037;-88
2022/02/23 09:38:32;;;;;;;2.30;0.80;;;;;;;187.52;0.00;60892.56;4832155;28;20619;-86
2022/02/23 09:41:15;;;;;;;3.53;0.70;;;;;;;-145.06;0.00;60892.56;4824722;28;20277;-86
2022/02/23 09:43:55;;;;;;;2.80;0.80;;;;;;;8.95;0.00;60892.56;4845073;28;20597;-89
2022/02/23 09:46:34;;;;;;;2.47;0.63;;;;;;;-145.06;0.00;60892.56;4833799;28;20037;-88
2022/02/23 09:49:14;;;;;;;1.75;0.70;;;;;;;-145.06;0.00;60892.56;4840151;28;20072;-88
2022/02/23 09:51:53;;;;;;;3.42;1.00;;;;;;;-145.06;0.00;60892.56;4837297;28;20069;-89
2022/02/23 09:54:31;;;;;;;3.22;0.90;;;;;;;-145.06;0.00;60892.56;4834104;28;20042;-87
2022/02/23 09:57:12;;;;;;;3.42;0.80;;;;;;;-145.06;0.00;60892.56;4829960;28;20037;-88
2022/02/23 09:59:52;;;;;;;2.10;0.75;;;;;;;-145.06;0.00;60892.56;4829205;28;20030;-88
2022/02/23 10:02:35;;;;;;;;;;;;;;;-145.06;0.00;60892.56;4836420;28;22341;-88
2022/02/23 10:05:17;;;;;;;1.38;0.57;;;;;;;-145.06;0.00;60892.56;4843839;28;19936;-87
2022/02/23 10:08:03;;;;;;;2.75;0.70;;;;;;;187.52;0.00;60892.56;4834638;28;20037;-89
2022/02/23 10:10:48;;;;;;;3.42;0.60;;;;;;;-145.06;0.00;60892.56;4840767;28;20607;-87
2022/02/23 10:13:27;;;;;;;0.85;0.50;;;;;;;-145.06;0.00;60892.56;4836047;28;20381;-88
2022/02/23 10:16:08;;;;;;;0.63;0.50;;;;;;;-145.06;0.00;60892.56;4824966;28;20025;-87
2022/02/23 10:18:47;;;;;;;2.10;0.60;;;;;;;-145.06;0.00;60892.56;4835627;28;20026;-88
2022/02/23 10:21:26;;;;;;;0.68;0.57;;;;;;;-145.06;0.00;60892.56;4837111;28;20034;-89
2022/02/23 10:24:19;;;;;;;1.03;0.50;;;;;;;10.65;0.00;60892.56;4840171;28;20441;-89
2022/02/23 10:27:13;;;;;;;1.27;0.70;;;;;;;-145.06;0.00;60892.56;4833273;28;20284;-88
2022/02/23 10:29:54;;;;;;;2.15;0.73;;;;;;;-145.06;0.00;60892.56;4834987;28;20030;-89
2022/02/23 10:32:33;;;;;;;2.88;0.73;;;;;;;-145.06;0.00;60892.56;4837683;28;20064;-89
2022/02/23 10:35:12;;;;;;;1.48;0.63;;;;;;;-145.06;0.00;60892.56;4837099;28;20061;-89
2022/02/23 10:37:51;;;;;;;2.72;0.82;;;;;;;-145.06;0.00;60892.56;4836320;28;20373;-90
2022/02/23 10:40:30;;;;;;;1.17;0.63;;;;;;;-145.06;0.00;60892.56;4837341;28;20061;-89
2022/02/23 10:43:22;;;;;;;3.33;0.77;;;;;;;-145.06;0.00;60892.56;4836686;28;20029;-90
2022/02/23 10:46:05;;;;;;;2.00;0.70;;;;;;;-145.06;0.00;60892.56;4853289;28;20293;-90
2022/02/23 10:48:46;;;;;;;4.53;1.17;;;;;;;-145.06;0.00;60892.56;4837925;28;20041;-90
2022/02/23 10:51:29;;;;;;;2.40;0.77;;;;;;;-145.06;0.00;60892.56;4826499;28;20564;-89
2022/02/23 10:54:10;;;;;;;3.08;0.73;;;;;;;-145.06;0.00;60892.56;4818617;28;20050;-89
2022/02/23 10:56:49;;;;;;;2.58;0.65;;;;;;;-145.06;0.00;60892.56;4818792;28;20022;-89
2022/02/23 10:59:27;;;;;;;2.10;0.60;;;;;;;-145.06;0.00;60892.56;4818586;28;20026;-89
2022/02/23 11:02:08;;;;;;;1.95;0.70;;;;;;;187.52;0.00;60892.56;4838257;28;20022;-89
2022/02/23 11:04:47;;;;;;;1.65;0.52;;;;;;;-145.06;0.00;60892.56;4836860;28;20034;-89
2022/02/23 11:07:27;;;;;;;1.55;0.63;;;;;;;-145.06;0.00;60892.56;4837305;28;20065;-88
2022/02/23 11:10:07;;;;;;;4.40;0.87;;;;;;;-145.06;0.00;60892.56;4837337;28;20049;-90
2022/02/23 11:12:48;;;;;;;1.73;0.70;;;;;;;187.52;0.00;60892.56;4836887;28;20030;-89
2022/02/23 11:15:30;;;;;;;1.77;0.60;;;;;;;-145.06;0.00;60892.56;4830435;28;20021;-89
2022/02/23 11:18:12;;;;;;;1.65;0.55;;;;;;;-145.06;0.00;60892.56;4836148;28;20022;-90
2022/02/23 11:20:53;;;;;;;1.83;0.60;;;;;;;-145.06;0.00;60892.56;4836672;28;20029;-90
2022/02/23 11:23:34;;;;;;;1.45;0.60;;;;;;;-145.06;0.00;60892.56;4836027;28;20471;-89
2022/02/23 11:26:19;;;;;;;2.33;0.63;;;;;;;-145.06;0.00;60892.56;4836348;28;20034;-88
2022/02/23 11:29:06;;;;;;;1.73;0.57;;;;;;;-145.06;0.00;60892.56;4846099;28;20030;-89
2022/02/23 11:31:49;;;;;;;2.75;0.63;;;;;;;-145.06;0.00;60892.56;4829379;28;20027;-89
2022/02/23 11:34:28;;;;;;;1.48;0.52;;;;;;;-145.06;0.00;60892.56;4840558;28;20034;-89
2022/02/23 11:37:12;;;;;;;2.00;0.60;;;;;;;-145.06;0.00;60892.56;4828725;28;20026;-89
2022/02/23 11:39:51;;;;;;;2.70;0.65;;;;;;;-145.06;0.00;60892.56;4834019;28;20034;-90
2022/02/23 11:42:34;;;;;;;2.45;0.70;;;;;;;-145.06;0.00;60892.56;4840876;28;20037;-89
2022/02/23 11:45:14;;;;;;;0.95;0.40;;;;;;;-145.06;0.00;60892.56;4835973;28;20042;-90
2022/02/23 11:47:57;;;;;;;0.77;0.50;;;;;;;-145.06;0.00;60892.56;4837639;28;20026;-90
2022/02/23 11:51:03;;;;;;;1.67;0.60;;;;;;;-145.06;0.00;60892.56;4851899;28;20037;-90
2022/02/23 11:53:42;;;;;;;2.58;0.47;;;;;;;-145.06;0.00;60892.56;4832540;28;20026;-90
2022/02/23 11:56:47;;;;;;;2.42;1.13;;;;;;;-145.06;0.00;60892.56;4818809;28;20022;-90
2022/02/23 11:59:49;;;;;;;2.28;0.60;;;;;;;-145.06;0.00;60892.56;4835420;28;20030;-89
2022/02/23 12:02:30;;;;;;;1.35;0.60;;;;;;;-145.06;0.00;60892.56;4832694;28;20057;-90
2022/02/23 12:05:37;;;;;;;3.72;1.00;;;;;;;-145.06;0.00;60892.56;4837892;28;20030;-90
2022/02/23 12:08:31;;;;;;;2.60;0.68;;;;;;;15.88;0.00;60892.56;4834362;28;20483;-90
2022/02/23 12:11:15;;;;;;;1.20;0.65;;;;;;;-145.06;0.00;60892.56;4861597;28;20038;-90
2022/02/23 12:13:55;;;;;;;1.52;0.50;;;;;;;-145.06;0.00;60892.56;4864090;28;20018;-90
2022/02/23 12:16:41;;;;;;;1.63;0.60;;;;;;;-145.06;0.00;60892.56;4847529;28;20109;-90
2022/02/23 12:19:40;;;;;;;2.00;0.60;;;;;;;-145.06;0.00;60892.56;4840440;28;20038;-90
2022/02/23 12:22:19;;;;;;;1.45;0.50;;;;;;;-145.06;0.00;60892.56;4841159;28;20030;-91
2022/02/23 12:24:58;;;;;;;1.35;0.50;;;;;;;-145.06;0.00;60892.56;4849977;28;20025;-90
2022/02/23 12:27:37;;;;;;;3.03;0.57;;;;;;;14.09;0.00;60892.56;4840384;28;20034;-89
2022/02/23 12:30:15;;;;;;;2.87;0.73;;;;;;;-145.06;0.00;60892.56;4827042;28;20038;-91
2022/02/23 12:32:58;;;;;;;2.30;0.67;;;;;;;-145.06;0.00;60892.56;4845313;28;20360;-90
2022/02/23 12:35:37;;;;;;;1.88;0.70;;;;;;;14.58;0.00;60892.56;4839924;28;20272;-89
2022/02/23 12:38:22;;;;;;;2.40;0.73;;;;;;;15.88;0.00;60892.56;4832574;28;20499;-89